Time;durP1;ratioP1;P1;durP2;ratioP2;P2;SDS_P1;SDS_P2;PMS_P1;PMS_P2;Temp;Humidity;BMP_temperature;BMP_pressure;BME280_temperature;BME280_humidity;BME280_pressure;Samples;Min_cycle;Max_cycle;Signal;HPM_P1;HPM_P2
2021/09/20 00:00:29;;;;;;;5.50;3.50;;;;;;;8.14;81.73;100476.77;93872;1196;99273;-66
2021/09/20 00:02:54;;;;;;;6.40;3.90;;;;;;;8.13;81.84;100475.71;93881;1196;86934;-68
2021/09/20 00:05:31;;;;;;;4.60;3.30;;;;;;;8.09;81.91;100478.23;93616;1198;92781;-63
2021/09/20 00:07:44;;;;;;;3.80;3.00;;;;;;;8.07;81.84;100476.86;93813;1196;79109;-64
2021/09/20 00:09:49;;;;;;;4.70;2.70;;;;;;;8.07;81.82;100479.45;93828;1196;82243;-68
2021/09/20 00:11:58;;;;;;;4.30;2.80;;;;;;;8.03;81.81;100475.69;93712;1198;98424;-67
2021/09/20 00:14:02;;;;;;;3.60;2.90;;;;;;;8.07;81.79;100477.48;93887;1196;86983;-63
2021/09/20 00:16:07;;;;;;;4.10;3.20;;;;;;;8.09;81.77;100478.34;93886;1196;94072;-63
2021/09/20 00:18:14;;;;;;;4.90;3.30;;;;;;;8.08;81.81;100481.50;93843;1196;79003;-64
2021/09/20 00:20:19;;;;;;;5.20;3.00;;;;;;;8.11;81.85;100484.17;93854;1196;80632;-63
2021/09/20 00:22:23;;;;;;;5.10;2.70;;;;;;;8.09;81.76;100480.74;93898;1196;98800;-63
2021/09/20 00:24:27;;;;;;;3.60;2.70;;;;;;;8.11;81.69;100482.90;93831;1196;88296;-67
2021/09/20 00:26:32;;;;;;;4.10;2.70;;;;;;;8.12;81.70;100482.60;93834;1196;93924;-65
2021/09/20 00:28:36;;;;;;;4.80;3.40;;;;;;;8.10;81.71;100481.20;93850;1196;78728;-64
2021/09/20 00:30:41;;;;;;;5.10;2.90;;;;;;;8.08;81.70;100483.96;93826;1196;82768;-63
2021/09/20 00:32:45;;;;;;;5.40;3.00;;;;;;;8.06;81.71;100484.59;93860;1196;98348;-63
2021/09/20 00:34:49;;;;;;;4.90;2.70;;;;;;;8.08;81.67;100485.00;93868;1196;87763;-67
2021/09/20 00:36:54;;;;;;;3.20;2.80;;;;;;;8.08;81.68;100485.05;93837;1196;92344;-65
2021/09/20 00:38:58;;;;;;;4.10;3.00;;;;;;;8.10;81.62;100484.98;93821;1196;79076;-63
2021/09/20 00:41:03;;;;;;;3.80;2.90;;;;;;;8.14;81.68;100487.48;93888;1196;80646;-63
2021/09/20 00:43:10;;;;;;;4.10;2.90;;;;;;;8.16;81.65;100485.42;93875;1196;99572;-63
2021/09/20 00:45:14;;;;;;;4.80;2.70;;;;;;;8.18;81.56;100487.33;93886;1196;87639;-66
2021/09/20 00:47:18;;;;;;;3.20;2.60;;;;;;;8.13;81.48;100486.46;93873;1196;92645;-66
2021/09/20 00:49:26;;;;;;;3.60;2.80;;;;;;;8.10;81.32;100487.17;93815;1196;80794;-65
2021/09/20 00:51:30;;;;;;;4.40;2.80;;;;;;;8.07;81.30;100483.86;93904;1196;80580;-66
2021/09/20 00:53:34;;;;;;;3.00;2.20;;;;;;;8.07;81.22;100484.36;93825;1196;97193;-64
2021/09/20 00:55:40;;;;;;;4.70;2.40;;;;;;;8.10;81.12;100483.77;93849;1196;87235;-64
2021/09/20 00:57:47;;;;;;;4.70;2.20;;;;;;;8.07;80.92;100483.59;93893;1196;93272;-63
2021/09/20 00:59:51;;;;;;;3.10;2.10;;;;;;;8.01;80.70;100487.09;93862;1196;77746;-64
2021/09/20 01:01:55;;;;;;;2.80;2.20;;;;;;;7.99;80.67;100489.86;93866;1196;81471;-63
2021/09/20 01:03:59;;;;;;;3.40;2.10;;;;;;;7.95;80.57;100486.70;93820;1196;97666;-63
2021/09/20 01:06:06;;;;;;;3.20;1.60;;;;;;;7.95;80.59;100486.88;93772;1196;86953;-64
2021/09/20 01:08:13;;;;;;;2.50;1.80;;;;;;;7.93;80.50;100488.33;93860;1196;93220;-64
2021/09/20 01:10:17;;;;;;;3.30;1.80;;;;;;;7.91;80.43;100489.71;93819;1196;78155;-65
2021/09/20 01:12:22;;;;;;;4.40;2.00;;;;;;;7.91;80.41;100488.52;93854;1196;82089;-64
2021/09/20 01:14:26;;;;;;;4.10;2.50;;;;;;;7.91;80.37;100491.79;93833;1196;97488;-65
2021/09/20 01:16:33;;;;;;;2.80;2.10;;;;;;;7.93;80.48;100488.19;93857;1196;86783;-64
2021/09/20 01:18:37;;;;;;;2.70;2.10;;;;;;;7.95;80.59;100486.56;93869;1196;92942;-65
2021/09/20 01:20:41;;;;;;;3.90;1.80;;;;;;;7.95;80.47;100486.36;93827;1196;81264;-66
2021/09/20 01:22:50;;;;;;;3.90;2.00;;;;;;;7.92;80.53;100484.85;93838;1196;82033;-65
2021/09/20 01:24:55;;;;;;;3.10;2.20;;;;;;;7.93;80.57;100481.04;93801;1196;98731;-68
2021/09/20 01:27:05;;;;;;;3.10;2.10;;;;;;;7.91;80.38;100479.24;93876;1196;87663;-67
2021/09/20 01:29:10;;;;;;;3.60;1.60;;;;;;;7.91;80.41;100479.41;93837;1196;94225;-65
2021/09/20 01:31:14;;;;;;;4.00;2.40;;;;;;;7.91;80.39;100483.35;93796;1196;77957;-64
2021/09/20 01:33:19;;;;;;;2.80;2.20;;;;;;;7.95;80.52;100483.84;93857;1196;82827;-64
2021/09/20 01:35:24;;;;;;;2.60;1.70;;;;;;;7.93;80.43;100476.69;93728;1197;98366;-67
2021/09/20 01:37:28;;;;;;;3.30;1.90;;;;;;;7.96;80.43;100476.55;93866;1196;86601;-67
2021/09/20 01:39:36;;;;;;;4.10;2.00;;;;;;;7.99;80.64;100477.11;93816;1196;93305;-67
2021/09/20 01:41:40;;;;;;;3.30;2.10;;;;;;;8.00;80.66;100475.60;93810;1196;78288;-67
2021/09/20 01:43:45;;;;;;;4.10;2.00;;;;;;;8.01;80.75;100472.91;93846;1196;82091;-64
2021/09/20 01:45:50;;;;;;;3.40;2.40;;;;;;;8.01;80.73;100470.93;93865;1196;97828;-64
2021/09/20 01:47:57;;;;;;;3.60;2.00;;;;;;;8.02;80.78;100467.92;93814;1196;88025;-63
2021/09/20 01:50:01;;;;;;;4.10;2.10;;;;;;;7.96;80.49;100466.45;93823;1196;93903;-64
2021/09/20 01:52:07;;;;;;;2.50;2.00;;;;;;;7.96;80.64;100469.05;93878;1196;78158;-64
2021/09/20 01:54:12;;;;;;;2.50;1.90;;;;;;;7.96;80.60;100469.79;93856;1196;81501;-63
2021/09/20 01:56:16;;;;;;;3.10;2.30;;;;;;;7.94;80.62;100473.14;93872;1196;98109;-64
2021/09/20 01:58:23;;;;;;;2.80;2.00;;;;;;;7.97;80.58;100475.52;93825;1196;89778;-63
2021/09/20 02:00:31;;;;;;;2.90;2.10;;;;;;;7.95;80.59;100480.39;93789;1196;95748;-64
2021/09/20 02:02:35;;;;;;;4.30;2.10;;;;;;;7.96;80.65;100481.69;93848;1196;79215;-63
2021/09/20 02:04:39;;;;;;;3.90;2.30;;;;;;;7.98;80.66;100488.15;93825;1196;81875;-63
2021/09/20 02:06:47;;;;;;;3.00;1.90;;;;;;;7.99;80.62;100480.70;93875;1196;97437;-63
2021/09/20 02:08:55;;;;;;;4.60;2.00;;;;;;;7.98;80.75;100484.41;93889;1196;87173;-68
2021/09/20 02:11:00;;;;;;;2.80;1.90;;;;;;;7.97;80.65;100485.02;93843;1196;94426;-68
2021/09/20 02:13:04;;;;;;;4.40;2.00;;;;;;;7.93;80.75;100487.29;93801;1196;81714;-66
2021/09/20 02:15:11;;;;;;;2.40;1.70;;;;;;;7.92;80.72;100489.70;93756;1196;82891;-66
2021/09/20 02:17:15;;;;;;;3.70;1.80;;;;;;;7.92;80.84;100486.30;93801;1196;99133;-65
2021/09/20 02:19:19;;;;;;;3.10;1.90;;;;;;;7.96;80.77;100487.35;93821;1196;88025;-65
2021/09/20 02:21:27;;;;;;;3.90;1.70;;;;;;;7.95;80.76;100488.48;93823;1196;94583;-67
2021/09/20 02:23:36;;;;;;;2.20;1.80;;;;;;;7.95;80.70;100487.61;93821;1196;78857;-67
2021/09/20 02:25:40;;;;;;;3.40;1.90;;;;;;;7.93;80.72;100486.40;93829;1196;82165;-66
2021/09/20 02:27:47;;;;;;;5.00;2.10;;;;;;;7.90;80.74;100487.14;93805;1196;97973;-66
2021/09/20 02:29:53;;;;;;;2.20;1.70;;;;;;;7.85;80.82;100486.22;93825;1196;88415;-65
2021/09/20 02:32:00;;;;;;;4.20;1.80;;;;;;;7.85;80.73;100486.04;93942;1196;93258;-67
2021/09/20 02:34:04;;;;;;;3.00;1.70;;;;;;;7.80;80.69;100482.65;93828;1196;78743;-68
2021/09/20 02:36:09;;;;;;;2.90;2.00;;;;;;;7.78;80.81;100483.80;93834;1196;81620;-66
2021/09/20 02:38:13;;;;;;;3.00;2.20;;;;;;;7.77;81.02;100481.79;93846;1196;98889;-65
2021/09/20 02:40:20;;;;;;;3.00;2.30;;;;;;;7.75;80.91;100480.48;93788;1196;88547;-65
2021/09/20 02:42:24;;;;;;;2.80;2.10;;;;;;;7.70;81.01;100481.71;93818;1196;94016;-64
2021/09/20 02:44:29;;;;;;;3.60;2.00;;;;;;;7.70;81.00;100474.92;93803;1196;79747;-67
2021/09/20 02:46:33;;;;;;;3.40;2.00;;;;;;;7.67;81.04;100468.84;93852;1196;80448;-64
2021/09/20 02:48:37;;;;;;;3.30;1.90;;;;;;;7.70;81.08;100472.64;93783;1196;98810;-64
2021/09/20 02:50:42;;;;;;;3.10;2.10;;;;;;;7.70;81.11;100472.38;93800;1196;86611;-63
2021/09/20 02:52:46;;;;;;;3.60;1.90;;;;;;;7.71;81.15;100474.09;93820;1196;92588;-64
2021/09/20 02:54:50;;;;;;;4.10;2.00;;;;;;;7.73;81.23;100472.48;93860;1196;78407;-65
2021/09/20 02:56:54;;;;;;;2.80;1.90;;;;;;;7.75;81.27;100471.06;93693;1196;82468;-63
2021/09/20 02:58:59;;;;;;;2.20;1.70;;;;;;;7.72;81.20;100467.73;93781;1196;97737;-65
2021/09/20 03:01:03;;;;;;;4.30;1.70;;;;;;;7.69;81.22;100465.89;93802;1196;88674;-65
2021/09/20 03:03:08;;;;;;;2.80;2.00;;;;;;;7.71;81.40;100465.73;93779;1196;92505;-65
2021/09/20 03:05:12;;;;;;;4.50;1.90;;;;;;;7.76;81.37;100467.33;93805;1196;79217;-66
2021/09/20 03:07:17;;;;;;;4.40;2.30;;;;;;;7.75;81.30;100467.48;93829;1196;81838;-66
2021/09/20 03:09:21;;;;;;;3.30;2.20;;;;;;;7.77;81.33;100470.16;93836;1196;97526;-63
2021/09/20 03:11:26;;;;;;;2.70;2.10;;;;;;;7.73;81.31;100469.96;93867;1196;86785;-64
2021/09/20 03:13:30;;;;;;;2.40;1.80;;;;;;;7.71;81.25;100468.21;93822;1196;94241;-66
2021/09/20 03:15:35;;;;;;;2.60;1.90;;;;;;;7.72;81.21;100468.08;93842;1196;80456;-65
2021/09/20 03:17:39;;;;;;;3.20;2.30;;;;;;;7.71;81.27;100471.06;93855;1196;81017;-65
2021/09/20 03:19:45;;;;;;;3.10;2.10;;;;;;;7.76;81.39;100473.38;93742;1196;98506;-64
2021/09/20 03:21:49;;;;;;;2.60;2.00;;;;;;;7.80;81.45;100474.41;93837;1196;87467;-65
2021/09/20 03:23:56;;;;;;;3.90;2.20;;;;;;;7.74;81.43;100475.60;93813;1196;93798;-65
2021/09/20 03:26:00;;;;;;;4.40;2.00;;;;;;;7.70;81.34;100478.14;93789;1196;82019;-65
2021/09/20 03:28:05;;;;;;;2.60;1.80;;;;;;;7.72;81.28;100479.70;93841;1196;80688;-65
2021/09/20 03:30:16;;;;;;;2.40;1.80;;;;;;;7.71;81.32;100478.42;93803;1196;99920;-67
2021/09/20 03:32:20;;;;;;;5.60;2.10;;;;;;;7.72;81.29;100478.33;93821;1196;88327;-64
2021/09/20 03:34:25;;;;;;;2.50;1.90;;;;;;;7.79;81.23;100474.85;93646;1196;94457;-66
2021/09/20 03:36:29;;;;;;;4.10;2.10;;;;;;;7.82;81.38;100471.63;93783;1196;79237;-67
2021/09/20 03:38:33;;;;;;;2.90;1.70;;;;;;;7.80;81.28;100473.80;93793;1196;81862;-66
2021/09/20 03:40:38;;;;;;;3.50;2.00;;;;;;;7.79;81.33;100475.05;93767;1196;97974;-65
2021/09/20 03:42:47;;;;;;;2.40;1.80;;;;;;;7.81;81.39;100469.30;93754;1196;88927;-66
2021/09/20 03:44:54;;;;;;;3.60;2.10;;;;;;;7.80;81.39;100474.58;93783;1196;93575;-64
2021/09/20 03:46:58;;;;;;;3.50;2.00;;;;;;;7.78;81.21;100477.02;93831;1196;78701;-65
2021/09/20 03:49:03;;;;;;;2.30;1.70;;;;;;;7.75;81.29;100475.66;93769;1196;81938;-65
2021/09/20 03:51:07;;;;;;;3.70;1.70;;;;;;;7.72;81.34;100479.16;93796;1196;98851;-65
2021/09/20 03:53:11;;;;;;;3.30;2.10;;;;;;;7.70;81.36;100472.84;93768;1196;88051;-65
2021/09/20 03:55:16;;;;;;;2.50;1.80;;;;;;;7.69;81.36;100475.52;93778;1196;94631;-65
2021/09/20 03:57:20;;;;;;;3.40;2.10;;;;;;;7.70;81.26;100473.14;93832;1196;78193;-63
2021/09/20 03:59:24;;;;;;;3.80;2.10;;;;;;;7.73;81.30;100475.71;93769;1196;81847;-66
2021/09/20 04:01:28;;;;;;;2.70;1.90;;;;;;;7.73;81.33;100476.20;93675;1196;99019;-65
2021/09/20 04:03:33;;;;;;;2.50;1.70;;;;;;;7.71;81.29;100480.34;93790;1196;87471;-65
2021/09/20 04:05:37;;;;;;;2.80;1.70;;;;;;;7.72;81.39;100481.71;93773;1196;93879;-66
2021/09/20 04:07:42;;;;;;;2.70;1.60;;;;;;;7.75;81.39;100483.70;93763;1196;80919;-64
2021/09/20 04:09:47;;;;;;;2.60;1.60;;;;;;;7.81;81.52;100485.77;93750;1196;81772;-65
2021/09/20 04:11:51;;;;;;;3.10;1.70;;;;;;;7.84;81.51;100489.37;93767;1196;97874;-64
2021/09/20 04:13:56;;;;;;;2.40;1.80;;;;;;;7.87;81.53;100492.42;93786;1180;86967;-66
2021/09/20 04:16:00;;;;;;;3.20;2.00;;;;;;;7.87;81.44;100493.73;93767;1196;93880;-66
2021/09/20 04:18:04;;;;;;;3.10;1.80;;;;;;;7.83;81.49;100492.33;93758;1196;79536;-66
2021/09/20 04:20:12;;;;;;;1.90;1.20;;;;;;;7.81;81.36;100500.00;93853;1196;80625;-65
2021/09/20 04:22:16;;;;;;;1.90;1.50;;;;;;;7.80;81.47;100494.69;93763;1196;99049;-66
2021/09/20 04:24:20;;;;;;;2.10;1.50;;;;;;;7.82;81.48;100496.47;93777;1196;86718;-66
2021/09/20 04:26:27;;;;;;;2.30;1.70;;;;;;;7.79;81.48;100498.89;93790;1196;93837;-64
2021/09/20 04:28:31;;;;;;;3.20;1.70;;;;;;;7.76;81.41;100498.73;93787;1196;79394;-68
2021/09/20 04:30:43;;;;;;;3.40;2.20;;;;;;;7.68;81.21;100496.27;93815;1196;80598;-64
2021/09/20 04:32:50;;;;;;;2.50;1.70;;;;;;;7.64;81.28;100495.73;93748;1196;99169;-66
2021/09/20 04:34:54;;;;;;;2.70;1.70;;;;;;;7.68;81.25;100498.27;93782;1196;86223;-66
2021/09/20 04:36:58;;;;;;;2.60;1.70;;;;;;;7.67;81.33;100499.41;93752;1196;93216;-64
2021/09/20 04:39:03;;;;;;;3.70;1.70;;;;;;;7.66;81.36;100503.89;93773;1196;78374;-67
2021/09/20 04:41:10;;;;;;;2.10;1.60;;;;;;;7.64;81.26;100509.64;93790;1196;81259;-68
2021/09/20 04:43:15;;;;;;;3.80;1.70;;;;;;;7.63;81.22;100507.10;93785;1196;99513;-70
2021/09/20 04:45:22;;;;;;;3.00;1.40;;;;;;;7.62;81.36;100509.71;93845;1196;87358;-68
2021/09/20 04:47:26;;;;;;;3.60;1.40;;;;;;;7.66;81.29;100504.42;93756;1196;94546;-67
2021/09/20 04:49:31;;;;;;;2.40;1.50;;;;;;;7.69;81.43;100509.11;93778;1196;79941;-65
2021/09/20 04:51:35;;;;;;;3.90;1.70;;;;;;;7.69;81.44;100510.16;93794;1196;81157;-66
2021/09/20 04:53:42;;;;;;;2.70;1.50;;;;;;;7.64;81.52;100509.52;93761;1196;97969;-65
2021/09/20 04:55:47;;;;;;;2.90;1.30;;;;;;;7.64;81.53;100511.48;93786;1196;86967;-64
2021/09/20 04:57:51;;;;;;;3.00;1.60;;;;;;;7.62;81.72;100513.51;93768;1196;93028;-65
2021/09/20 04:59:55;;;;;;;3.10;1.70;;;;;;;7.61;81.78;100516.06;93799;1196;80265;-64
2021/09/20 05:02:03;;;;;;;4.30;1.60;;;;;;;7.63;81.93;100518.39;93791;1196;82273;-65
2021/09/20 05:04:09;;;;;;;2.20;1.80;;;;;;;7.63;82.09;100523.89;93749;1196;99950;-64
2021/09/20 05:06:13;;;;;;;1.90;1.70;;;;;;;7.59;82.24;100526.05;93773;1196;87601;-65
2021/09/20 05:08:18;;;;;;;3.00;1.50;;;;;;;7.48;82.54;100526.54;93791;1196;94244;-65
2021/09/20 05:10:26;;;;;;;2.10;1.60;;;;;;;7.47;82.64;100530.70;93771;1196;79812;-66
2021/09/20 05:12:33;;;;;;;3.20;1.70;;;;;;;7.45;82.73;100525.92;93805;1196;80226;-66
2021/09/20 05:14:40;;;;;;;4.50;1.40;;;;;;;7.46;82.74;100533.33;93718;1196;98024;-65
2021/09/20 05:16:44;;;;;;;2.60;1.70;;;;;;;7.45;83.12;100538.13;93844;1196;86778;-65
2021/09/20 05:18:49;;;;;;;2.60;1.60;;;;;;;7.41;83.25;100540.84;93755;1196;93468;-65
2021/09/20 05:20:53;;;;;;;3.80;1.90;;;;;;;7.39;83.50;100538.59;93750;1196;79999;-64
2021/09/20 05:23:00;;;;;;;3.40;1.80;;;;;;;7.38;83.48;100533.71;93817;1196;80290;-65
2021/09/20 05:25:06;;;;;;;4.10;1.90;;;;;;;7.42;83.55;100532.41;93756;1196;98856;-66
2021/09/20 05:27:10;;;;;;;3.70;2.00;;;;;;;7.49;83.62;100527.67;93813;1196;86971;-67
2021/09/20 05:29:14;;;;;;;2.50;1.70;;;;;;;7.60;83.77;100530.41;93666;1196;93473;-67
2021/09/20 05:31:21;;;;;;;3.30;1.90;;;;;;;7.64;83.70;100529.38;93781;1196;80268;-66
2021/09/20 05:33:33;;;;;;;3.90;1.90;;;;;;;7.67;83.88;100526.38;93791;1196;81769;-65
2021/09/20 05:35:37;;;;;;;2.90;2.10;;;;;;;7.71;83.85;100527.92;93802;1196;98404;-64
2021/09/20 05:37:42;;;;;;;3.20;2.10;;;;;;;7.70;83.91;100528.94;93817;1196;86748;-65
2021/09/20 05:39:46;;;;;;;5.20;2.10;;;;;;;7.73;84.01;100529.31;93780;1196;94388;-65
2021/09/20 05:41:50;;;;;;;3.90;2.50;;;;;;;7.74;84.00;100533.11;93775;1196;79178;-65
2021/09/20 05:43:55;;;;;;;5.20;2.40;;;;;;;7.82;84.17;100534.39;93799;1196;81220;-65
2021/09/20 05:45:59;;;;;;;3.80;2.20;;;;;;;7.90;84.12;100531.56;93775;1196;97724;-65
2021/09/20 05:48:05;;;;;;;4.20;2.20;;;;;;;7.97;84.24;100530.09;93745;1196;85350;-65
2021/09/20 05:50:11;;;;;;;3.50;2.30;;;;;;;8.04;84.09;100530.67;93857;1196;93441;-65
2021/09/20 05:52:16;;;;;;;22.10;13.20;;;;;;;8.10;84.13;100527.13;93799;1196;80571;-65
2021/09/20 05:54:22;;;;;;;6.20;3.90;;;;;;;8.15;84.19;100531.79;93718;1196;82040;-67
2021/09/20 05:56:29;;;;;;;8.10;4.90;;;;;;;8.13;84.13;100529.29;93742;1196;99126;-67
2021/09/20 05:58:33;;;;;;;7.00;2.80;;;;;;;8.18;84.23;100527.63;93773;1196;86781;-67
2021/09/20 06:00:38;;;;;;;5.20;2.30;;;;;;;8.20;84.26;100525.23;93760;1196;93410;-69
2021/09/20 06:02:42;;;;;;;4.40;2.20;;;;;;;8.24;84.28;100521.98;93787;1196;81661;-67
2021/09/20 06:04:47;;;;;;;4.20;2.70;;;;;;;8.26;84.27;100520.66;93805;1196;81370;-64
2021/09/20 06:06:51;;;;;;;4.90;2.40;;;;;;;8.28;84.33;100515.96;93778;1196;96898;-64
2021/09/20 06:08:58;;;;;;;4.10;1.80;;;;;;;8.37;84.30;100517.20;93781;1196;88159;-68
2021/09/20 06:11:03;;;;;;;4.30;2.30;;;;;;;8.35;84.17;100518.68;93707;1196;93571;-67
2021/09/20 06:13:08;;;;;;;10.20;2.90;;;;;;;8.37;84.10;100513.39;93757;1196;81644;-67
2021/09/20 06:15:14;;;;;;;3.00;2.10;;;;;;;8.39;84.16;100517.32;93781;1196;81701;-67
2021/09/20 06:17:18;;;;;;;5.10;1.90;;;;;;;8.36;84.04;100521.16;93771;1196;99024;-66
2021/09/20 06:19:25;;;;;;;2.90;1.80;;;;;;;8.39;83.85;100520.00;93799;1196;86404;-67
2021/09/20 06:21:30;;;;;;;4.10;1.80;;;;;;;8.36;83.64;100519.92;93744;1196;94073;-66
2021/09/20 06:23:37;;;;;;;2.60;1.80;;;;;;;8.29;83.59;100519.95;93724;1196;79128;-67
2021/09/20 06:25:42;;;;;;;3.70;1.70;;;;;;;8.23;83.54;100521.60;93795;1196;80500;-67
2021/09/20 06:27:49;;;;;;;2.90;1.50;;;;;;;8.19;83.33;100523.11;93788;1196;98535;-66
2021/09/20 06:29:54;;;;;;;5.90;1.90;;;;;;;8.03;83.31;100524.15;93726;1196;87406;-64
2021/09/20 06:31:58;;;;;;;4.10;1.80;;;;;;;7.99;83.34;100531.98;93770;1196;94184;-68
2021/09/20 06:34:03;;;;;;;3.20;1.90;;;;;;;7.99;83.37;100532.13;93745;1196;80699;-68
2021/09/20 06:36:07;;;;;;;2.70;1.50;;;;;;;8.05;83.48;100532.72;93761;1195;81953;-68
2021/09/20 06:38:12;;;;;;;3.40;1.40;;;;;;;7.98;83.25;100533.70;93762;1196;97588;-67
2021/09/20 06:40:16;;;;;;;2.60;1.70;;;;;;;7.99;83.09;100541.14;93774;1196;88440;-68
2021/09/20 06:42:20;;;;;;;3.30;1.90;;;;;;;8.05;83.12;100537.38;93783;1196;93286;-66
2021/09/20 06:44:24;;;;;;;3.00;1.50;;;;;;;8.09;83.02;100541.46;93766;1196;78859;-66
2021/09/20 06:46:30;;;;;;;2.20;1.60;;;;;;;8.15;82.82;100540.82;93770;1196;82638;-68
2021/09/20 06:48:34;;;;;;;3.80;1.30;;;;;;;8.27;82.52;100537.05;93689;1196;98630;-66
2021/09/20 06:50:39;;;;;;;2.50;1.80;;;;;;;8.31;82.52;100538.10;93759;1196;87912;-67
2021/09/20 06:52:44;;;;;;;1.60;1.20;;;;;;;8.40;82.06;100536.77;93788;1196;94201;-66
2021/09/20 06:54:49;;;;;;;2.60;1.20;;;;;;;8.40;81.69;100535.48;93789;1196;79688;-65
2021/09/20 06:56:54;;;;;;;2.50;1.40;;;;;;;8.49;81.60;100535.46;93818;1196;80254;-65
2021/09/20 06:59:01;;;;;;;2.60;1.70;;;;;;;8.56;80.92;100536.49;93756;1196;97496;-65
2021/09/20 07:01:05;;;;;;;2.70;1.30;;;;;;;8.63;80.98;100537.85;93759;1196;87089;-65
2021/09/20 07:03:12;;;;;;;4.40;1.30;;;;;;;8.66;80.49;100542.01;93818;1196;93074;-66
2021/09/20 07:05:16;;;;;;;2.50;1.30;;;;;;;8.76;80.51;100543.93;93777;1196;78712;-67
2021/09/20 07:07:23;;;;;;;2.80;1.10;;;;;;;8.83;79.93;100546.83;93807;1196;82365;-67
2021/09/20 07:09:28;;;;;;;2.40;1.50;;;;;;;8.87;80.08;100545.98;93744;1196;99772;-66
2021/09/20 07:11:32;;;;;;;4.00;1.60;;;;;;;9.00;80.13;100549.02;93769;1195;88492;-66
2021/09/20 07:13:36;;;;;;;3.00;1.40;;;;;;;9.14;80.05;100552.85;93744;1196;93469;-66
2021/09/20 07:15:40;;;;;;;1.70;1.20;;;;;;;9.23;79.75;100554.99;93750;1196;79336;-64
2021/09/20 07:17:45;;;;;;;2.10;1.50;;;;;;;9.30;79.52;100555.23;93797;1196;80290;-65
2021/09/20 07:19:49;;;;;;;2.00;1.30;;;;;;;9.36;78.49;100555.83;93760;1196;98767;-65
2021/09/20 07:21:54;;;;;;;1.70;1.00;;;;;;;9.32;78.61;100557.56;93669;1196;86935;-67
2021/09/20 07:23:59;;;;;;;1.50;0.80;;;;;;;9.37;78.62;100559.26;93748;1196;94382;-67
2021/09/20 07:26:06;;;;;;;2.60;1.10;;;;;;;9.43;77.89;100559.05;93810;1196;79695;-66
2021/09/20 07:28:10;;;;;;;1.90;0.80;;;;;;;9.53;77.93;100559.20;93850;1196;81691;-67
2021/09/20 07:30:17;;;;;;;1.60;0.70;;;;;;;9.58;76.92;100560.98;93768;1196;97399;-64
2021/09/20 07:32:21;;;;;;;0.90;0.70;;;;;;;9.57;76.66;100565.36;93851;1196;86802;-65
2021/09/20 07:34:25;;;;;;;1.20;0.70;;;;;;;9.66;76.90;100566.65;93816;1196;93571;-68
2021/09/20 07:36:30;;;;;;;1.50;0.70;;;;;;;9.70;75.85;100567.90;93773;1196;77945;-67
2021/09/20 07:38:35;;;;;;;1.50;1.00;;;;;;;9.65;73.85;100574.69;93797;1196;81091;-65
2021/09/20 07:40:42;;;;;;;2.20;0.80;;;;;;;9.40;73.55;100573.26;93721;1196;98584;-64
2021/09/20 07:42:47;;;;;;;1.20;0.90;;;;;;;9.16;72.61;100573.23;93805;1196;87772;-65
2021/09/20 07:44:51;;;;;;;3.40;0.90;;;;;;;9.02;73.74;100575.92;93807;1196;94163;-66
2021/09/20 07:46:55;;;;;;;2.00;0.80;;;;;;;8.96;73.56;100575.90;93790;1196;77330;-65
2021/09/20 07:49:00;;;;;;;2.30;0.90;;;;;;;8.94;73.73;100578.98;93822;1196;82290;-66
2021/09/20 07:51:07;;;;;;;2.00;0.90;;;;;;;8.88;73.72;100582.77;93806;1196;99420;-66
2021/09/20 07:53:11;;;;;;;1.80;1.10;;;;;;;8.79;72.55;100580.20;93832;1196;85835;-66
2021/09/20 07:55:17;;;;;;;1.30;1.00;;;;;;;8.76;73.08;100579.98;93783;1196;94349;-66
2021/09/20 07:57:21;;;;;;;3.10;1.10;;;;;;;8.76;73.42;100581.27;93797;1196;79176;-66
2021/09/20 07:59:25;;;;;;;2.30;1.10;;;;;;;8.73;73.05;100579.30;93765;1196;80908;-67
2021/09/20 08:01:30;;;;;;;2.50;1.00;;;;;;;8.74;73.62;100578.27;93734;1196;98737;-66
2021/09/20 08:03:34;;;;;;;2.40;1.00;;;;;;;8.82;73.84;100579.09;93816;1196;88001;-66
2021/09/20 08:05:41;;;;;;;1.80;1.30;;;;;;;8.88;74.17;100578.02;93749;1196;93023;-64
2021/09/20 08:07:46;;;;;;;2.90;1.20;;;;;;;8.89;73.61;100577.89;93779;1196;78665;-65
2021/09/20 08:09:50;;;;;;;2.30;1.30;;;;;;;9.04;73.86;100574.32;93803;1196;80624;-66
2021/09/20 08:11:55;;;;;;;2.70;1.20;;;;;;;9.18;73.02;100578.09;93814;1196;99043;-65
2021/09/20 08:13:59;;;;;;;1.20;0.90;;;;;;;9.31;73.21;100580.48;93801;1196;87276;-65
2021/09/20 08:16:07;;;;;;;3.60;1.30;;;;;;;9.30;72.85;100580.06;93757;1196;94782;-64
2021/09/20 08:18:12;;;;;;;2.00;1.10;;;;;;;9.33;72.85;100582.73;93802;1195;78146;-65
2021/09/20 08:20:16;;;;;;;1.70;1.20;;;;;;;9.42;73.44;100585.11;93855;1196;81168;-65
2021/09/20 08:22:20;;;;;;;2.70;1.20;;;;;;;9.53;73.17;100587.11;93806;1196;99145;-64
2021/09/20 08:24:25;;;;;;;2.30;1.00;;;;;;;9.63;73.53;100589.13;93800;1196;86706;-67
2021/09/20 08:26:29;;;;;;;1.70;1.10;;;;;;;9.78;73.38;100589.54;93746;1193;92751;-66
2021/09/20 08:28:36;;;;;;;2.20;1.10;;;;;;;9.78;72.57;100593.28;93857;1196;78607;-64
2021/09/20 08:30:41;;;;;;;1.90;1.30;;;;;;;9.74;71.82;100590.63;93803;1196;81008;-64
2021/09/20 08:32:45;;;;;;;2.70;1.30;;;;;;;9.66;72.17;100591.43;93821;1196;98943;-64
2021/09/20 08:34:50;;;;;;;2.00;1.10;;;;;;;9.66;72.42;100591.50;93738;1195;87629;-65
2021/09/20 08:36:54;;;;;;;2.30;1.20;;;;;;;9.74;72.80;100593.23;93735;1196;94471;-62
2021/09/20 08:38:58;;;;;;;1.60;1.10;;;;;;;9.74;71.79;100596.40;93778;1196;78018;-65
2021/09/20 08:41:02;;;;;;;1.40;1.10;;;;;;;9.61;71.81;100594.36;93812;1196;81504;-66
2021/09/20 08:43:07;;;;;;;1.50;1.10;;;;;;;9.55;72.22;100598.65;93712;1196;97052;-64
2021/09/20 08:45:19;;;;;;;3.80;1.30;;;;;;;9.54;72.20;100596.27;93783;1196;86833;-64
2021/09/20 08:47:26;;;;;;;10.10;6.70;;;;;;;9.46;72.19;100598.84;93728;1196;92918;-66
2021/09/20 08:49:32;;;;;;;6.00;3.80;;;;;;;9.35;72.15;100595.06;93782;1196;77954;-66
2021/09/20 08:51:36;;;;;;;2.50;1.80;;;;;;;9.34;72.43;100595.05;93886;1196;81945;-67
2021/09/20 08:53:40;;;;;;;2.90;1.70;;;;;;;9.35;72.66;100600.85;93794;1196;99040;-67
2021/09/20 08:55:46;;;;;;;1.40;1.00;;;;;;;9.30;72.61;100599.83;93789;1196;86710;-67
2021/09/20 08:57:54;;;;;;;2.30;1.20;;;;;;;9.28;72.73;100596.44;93819;1196;93019;-66
2021/09/20 08:59:58;;;;;;;1.80;1.20;;;;;;;9.19;72.34;100597.09;93815;1196;79158;-67
2021/09/20 09:02:03;;;;;;;3.40;1.20;;;;;;;9.19;72.70;100598.58;93830;1196;81049;-67
2021/09/20 09:04:30;;;;;;;1.80;1.20;;;;;;;9.26;72.83;100598.10;93774;1195;97558;-67
2021/09/20 09:06:35;;;;;;;1.50;1.10;;;;;;;9.24;72.70;100597.03;93802;1196;87496;-67
2021/09/20 09:08:42;;;;;;;1.80;1.00;;;;;;;9.34;73.02;100592.16;93775;1196;93844;-67
2021/09/20 09:11:00;;;;;;;1.50;1.10;;;;;;;9.34;72.39;100588.02;93788;1196;79882;-67
2021/09/20 09:13:06;;;;;;;1.90;1.20;;;;;;;9.30;72.35;100588.85;93804;1196;81307;-66
2021/09/20 09:15:15;;;;;;;2.40;1.50;;;;;;;9.32;72.74;100585.58;93839;1196;98605;-67
2021/09/20 09:17:23;;;;;;;1.80;1.10;;;;;;;9.35;72.81;100590.23;93866;1196;87109;-67
2021/09/20 09:19:27;;;;;;;1.70;1.20;;;;;;;9.35;72.50;100590.81;93767;1196;95532;-67
2021/09/20 09:21:33;;;;;;;2.30;1.60;;;;;;;9.40;72.72;100593.61;93790;1196;79911;-68
2021/09/20 09:23:41;;;;;;;1.60;1.10;;;;;;;9.41;72.65;100596.96;93815;1196;79738;-64
2021/09/20 09:25:48;;;;;;;1.70;1.20;;;;;;;9.36;72.30;100599.64;93771;1196;98695;-65
2021/09/20 09:27:56;;;;;;;2.00;1.30;;;;;;;9.35;72.06;100599.50;93824;1195;86449;-65
2021/09/20 09:30:26;;;;;;;2.10;1.30;;;;;;;9.37;72.32;100597.52;93822;1196;94369;-65
2021/09/20 09:32:32;;;;;;;4.10;1.80;;;;;;;9.53;72.42;100599.27;93826;1196;79906;-64
2021/09/20 09:34:42;;;;;;;3.70;2.10;;;;;;;9.58;72.17;100598.30;93851;1196;81983;-66
2021/09/20 09:36:50;;;;;;;2.70;1.30;;;;;;;9.53;71.51;100601.77;93747;1196;98734;-66
2021/09/20 09:39:03;;;;;;;2.20;1.70;;;;;;;9.46;71.59;100597.85;93830;1196;87898;-66
2021/09/20 09:41:08;;;;;;;2.80;1.30;;;;;;;9.46;71.69;100600.43;93819;1196;94701;-65
2021/09/20 09:43:12;;;;;;;2.40;1.50;;;;;;;9.43;71.71;100604.05;93801;1196;79480;-66
2021/09/20 09:45:32;;;;;;;3.50;1.30;;;;;;;9.49;71.89;100605.70;93818;1196;83111;-66
2021/09/20 09:47:36;;;;;;;1.80;1.20;;;;;;;9.40;71.33;100605.82;93833;1196;98783;-66
2021/09/20 09:49:40;;;;;;;1.90;1.30;;;;;;;9.25;71.48;100606.80;93836;1196;86084;-65
2021/09/20 09:52:01;;;;;;;1.80;1.20;;;;;;;9.23;71.77;100605.80;93817;1196;94456;-65